Time;durP1;ratioP1;P1;durP2;ratioP2;P2;SDS_P1;SDS_P2;PMS_P1;PMS_P2;Temp;Humidity;BMP_temperature;BMP_pressure;BME280_temperature;BME280_humidity;BME280_pressure;Samples;Min_cycle;Max_cycle;Signal;HPM_P1;HPM_P2
2024/01/09 00:00:01;;;;;;;16.25;9.80;;;10.60;50.10;;;;;;348211;28;950;-59
2024/01/09 00:00:12;;;;;;;15.30;9.93;;;10.50;50.10;;;;;;348267;28;860;-58
2024/01/09 00:00:23;;;;;;;13.55;9.43;;;10.50;50.10;;;;;;348290;28;872;-59
2024/01/09 00:00:34;;;;;;;14.50;9.00;;;10.50;50.10;;;;;;348207;28;2168;-59
2024/01/09 00:00:44;;;;;;;14.98;9.00;;;10.50;50.20;;;;;;348204;28;1045;-61
2024/01/09 00:00:55;;;;;;;15.32;9.20;;;10.50;50.20;;;;;;348209;28;1641;-60
2024/01/09 00:01:06;;;;;;;14.57;9.37;;;10.50;50.20;;;;;;348262;28;932;-59
2024/01/09 00:01:17;;;;;;;13.93;9.50;;;10.50;50.30;;;;;;348271;28;1023;-59
2024/01/09 00:01:27;;;;;;;15.25;9.68;;;10.50;50.30;;;;;;348090;28;1172;-59
2024/01/09 00:01:44;;;;;;;16.45;9.80;;;10.50;50.30;;;;;;348256;28;1054;-59
2024/01/09 00:01:55;;;;;;;17.98;10.20;;;10.50;50.40;;;;;;348217;28;1185;-59
2024/01/09 00:02:05;;;;;;;17.73;10.53;;;10.50;50.40;;;;;;348244;28;1861;-58
2024/01/09 00:02:16;;;;;;;15.63;9.82;;;10.50;50.40;;;;;;348182;28;983;-59
2024/01/09 00:02:27;;;;;;;15.23;9.65;;;10.60;50.40;;;;;;348264;28;979;-59
2024/01/09 00:02:38;;;;;;;17.65;9.35;;;10.50;50.40;;;;;;348239;28;884;-59
2024/01/09 00:02:48;;;;;;;18.17;8.93;;;10.50;50.40;;;;;;348265;28;1822;-59
2024/01/09 00:02:59;;;;;;;18.48;9.15;;;10.50;50.40;;;;;;348239;28;1011;-58
2024/01/09 00:03:10;;;;;;;16.05;9.20;;;10.50;50.50;;;;;;348246;28;1861;-59
2024/01/09 00:03:21;;;;;;;15.75;9.38;;;10.50;50.50;;;;;;348271;28;1050;-59
2024/01/09 00:03:31;;;;;;;15.25;9.45;;;10.50;50.50;;;;;;348259;28;887;-59
2024/01/09 00:03:42;;;;;;;14.27;9.43;;;10.50;50.50;;;;;;348176;28;1052;-59
2024/01/09 00:03:53;;;;;;;16.52;9.68;;;10.50;50.50;;;;;;348195;28;1586;-59
2024/01/09 00:04:03;;;;;;;16.65;9.63;;;10.50;50.50;;;;;;348267;28;1023;-59
2024/01/09 00:04:14;;;;;;;15.77;9.73;;;10.50;50.50;;;;;;348280;28;967;-60
2024/01/09 00:04:25;;;;;;;13.35;9.63;;;10.50;50.50;;;;;;348111;28;1082;-59
2024/01/09 00:04:36;;;;;;;14.40;9.60;;;10.50;50.50;;;;;;348263;28;959;-59
2024/01/09 00:04:47;;;;;;;15.82;9.32;;;10.50;50.50;;;;;;348297;28;813;-59
2024/01/09 00:04:57;;;;;;;17.40;9.32;;;10.50;50.50;;;;;;348265;28;979;-59
2024/01/09 00:05:08;;;;;;;15.98;9.30;;;10.50;50.50;;;;;;348129;28;1082;-58
2024/01/09 00:05:19;;;;;;;14.27;9.43;;;10.50;50.50;;;;;;348297;28;805;-59
2024/01/09 00:05:30;;;;;;;13.40;9.33;;;10.50;50.60;;;;;;348284;28;1015;-58
2024/01/09 00:05:41;;;;;;;13.70;9.40;;;10.60;50.50;;;;;;348261;28;1529;-58
2024/01/09 00:05:51;;;;;;;15.45;9.55;;;10.50;50.50;;;;;;348131;28;1791;-59
2024/01/09 00:06:02;;;;;;;15.70;9.55;;;10.50;50.40;;;;;;348275;28;1042;-58
2024/01/09 00:06:16;;;;;;;16.90;9.35;;;10.60;50.40;;;;;;348245;28;976;-60
2024/01/09 00:06:27;;;;;;;15.70;9.50;;;10.50;50.40;;;;;;348235;28;1676;-59
2024/01/09 00:06:38;;;;;;;16.65;9.20;;;10.50;50.40;;;;;;348183;28;1033;-59
2024/01/09 00:06:49;;;;;;;17.10;9.27;;;10.50;50.40;;;;;;348281;28;1023;-59
2024/01/09 00:07:00;;;;;;;18.10;8.80;;;10.50;50.30;;;;;;348196;28;1014;-58
2024/01/09 00:07:11;;;;;;;17.35;8.60;;;10.60;50.30;;;;;;348277;28;840;-59
2024/01/09 00:07:21;;;;;;;16.23;8.52;;;10.60;50.40;;;;;;348133;28;1168;-58
2024/01/09 00:07:32;;;;;;;15.33;8.63;;;10.60;50.50;;;;;;348192;28;1524;-58
2024/01/09 00:07:43;;;;;;;15.95;8.88;;;10.60;50.40;;;;;;348215;28;1288;-58
2024/01/09 00:07:53;;;;;;;16.13;9.02;;;10.60;50.50;;;;;;348266;28;975;-58
2024/01/09 00:08:04;;;;;;;17.48;9.32;;;10.60;50.50;;;;;;348194;28;1011;-58
2024/01/09 00:08:15;;;;;;;15.95;9.30;;;10.60;50.60;;;;;;348207;28;1007;-59
2024/01/09 00:08:26;;;;;;;15.02;9.23;;;10.60;50.60;;;;;;348235;28;925;-59
2024/01/09 00:08:37;;;;;;;13.17;8.80;;;10.60;50.60;;;;;;348145;28;1911;-59
2024/01/09 00:08:48;;;;;;;12.65;8.75;;;10.60;50.60;;;;;;348186;28;1059;-58
2024/01/09 00:08:58;;;;;;;11.80;8.55;;;10.60;50.50;;;;;;348264;28;1067;-58
2024/01/09 00:09:09;;;;;;;12.50;8.65;;;10.60;50.40;;;;;;348287;28;868;-59
2024/01/09 00:09:20;;;;;;;12.60;8.68;;;10.60;50.40;;;;;;348259;28;1126;-59
2024/01/09 00:09:34;;;;;;;13.68;9.02;;;10.60;50.40;;;;;;348146;28;1546;-59
2024/01/09 00:09:45;;;;;;;17.40;9.48;;;10.60;50.30;;;;;;348240;28;877;-59
2024/01/09 00:09:56;;;;;;;19.10;9.00;;;10.60;50.20;;;;;;348187;28;1574;-59
2024/01/09 00:10:07;;;;;;;17.10;8.87;;;10.60;50.20;;;;;;348267;28;1042;-59
2024/01/09 00:10:18;;;;;;;15.73;8.82;;;10.60;50.20;;;;;;348126;28;999;-59
2024/01/09 00:10:29;;;;;;;15.13;9.10;;;10.60;50.10;;;;;;348277;28;888;-59
2024/01/09 00:10:40;;;;;;;14.75;8.95;;;10.60;50.10;;;;;;348243;28;1078;-59
2024/01/09 00:10:50;;;;;;;14.30;9.18;;;10.60;50.10;;;;;;348154;28;1752;-59
2024/01/09 00:11:01;;;;;;;14.23;9.17;;;10.60;50.10;;;;;;348246;28;986;-59
2024/01/09 00:11:13;;;;;;;15.20;9.07;;;10.60;50.10;;;;;;348327;28;915;-60
2024/01/09 00:11:24;;;;;;;15.10;9.05;;;10.70;50.10;;;;;;348188;28;1035;-59
2024/01/09 00:11:34;;;;;;;14.05;9.02;;;10.60;50.10;;;;;;348294;28;1156;-58
2024/01/09 00:11:45;;;;;;;13.32;8.75;;;10.70;50.10;;;;;;348208;28;1170;-58
2024/01/09 00:11:56;;;;;;;14.33;8.57;;;10.60;50.00;;;;;;348113;28;1296;-59
2024/01/09 00:12:07;;;;;;;13.90;8.45;;;10.70;49.90;;;;;;348248;28;909;-59
2024/01/09 00:12:18;;;;;;;13.20;8.55;;;10.60;49.90;;;;;;348294;28;861;-58
2024/01/09 00:12:29;;;;;;;12.63;8.70;;;10.70;49.90;;;;;;348148;28;1156;-59
2024/01/09 00:12:40;;;;;;;14.13;8.93;;;10.70;49.90;;;;;;348270;28;1011;-58
2024/01/09 00:12:50;;;;;;;14.63;8.95;;;10.60;49.90;;;;;;348256;28;801;-59
2024/01/09 00:13:03;;;;;;;13.98;8.57;;;10.60;49.90;;;;;;348239;28;1068;-58
2024/01/09 00:13:14;;;;;;;14.43;8.32;;;10.60;49.90;;;;;;348247;28;947;-58
2024/01/09 00:13:25;;;;;;;15.27;8.33;;;10.60;49.90;;;;;;348271;28;1003;-59
2024/01/09 00:13:35;;;;;;;15.63;8.60;;;10.60;49.90;;;;;;348150;28;1142;-58
2024/01/09 00:13:46;;;;;;;15.57;8.77;;;10.60;49.90;;;;;;348286;28;868;-58
2024/01/09 00:13:57;;;;;;;16.58;9.57;;;10.70;49.90;;;;;;348244;28;829;-58
2024/01/09 00:14:08;;;;;;;18.08;11.15;;;10.60;49.90;;;;;;348152;28;1161;-58
2024/01/09 00:14:18;;;;;;;20.13;12.20;;;10.60;50.00;;;;;;348263;28;872;-59
2024/01/09 00:14:29;;;;;;;22.42;13.63;;;10.60;50.10;;;;;;348240;28;1307;-59
2024/01/09 00:14:40;;;;;;;27.15;15.68;;;10.70;50.20;;;;;;348189;28;1031;-58
2024/01/09 00:14:51;;;;;;;34.13;17.80;;;10.70;50.20;;;;;;348226;28;1006;-60
2024/01/09 00:15:03;;;;;;;34.75;18.23;;;10.60;50.40;;;;;;348233;28;857;-59
2024/01/09 00:15:13;;;;;;;33.17;18.08;;;10.60;50.40;;;;;;348277;28;972;-58
2024/01/09 00:15:24;;;;;;;31.45;18.02;;;10.60;50.50;;;;;;348151;28;1023;-59
2024/01/09 00:15:35;;;;;;;29.10;17.50;;;10.70;50.50;;;;;;348259;28;828;-58
2024/01/09 00:15:46;;;;;;;22.85;14.82;;;10.60;50.60;;;;;;348241;28;988;-59
2024/01/09 00:15:56;;;;;;;20.27;12.32;;;10.60;50.50;;;;;;348278;28;964;-59
2024/01/09 00:16:08;;;;;;;18.38;10.98;;;10.60;50.50;;;;;;348167;28;1061;-59
2024/01/09 00:16:19;;;;;;;17.48;10.73;;;10.70;50.40;;;;;;348246;28;1086;-59
2024/01/09 00:16:29;;;;;;;15.95;10.15;;;10.60;50.30;;;;;;348274;28;848;-59
2024/01/09 00:16:40;;;;;;;16.33;9.25;;;10.60;50.20;;;;;;348258;28;1015;-59
2024/01/09 00:16:51;;;;;;;15.82;8.90;;;10.70;50.20;;;;;;348191;28;1057;-58
2024/01/09 00:17:02;;;;;;;14.57;8.40;;;10.70;50.20;;;;;;348262;28;857;-59
2024/01/09 00:17:12;;;;;;;12.93;8.32;;;10.60;50.20;;;;;;348252;28;987;-59
2024/01/09 00:17:23;;;;;;;13.32;8.50;;;10.70;50.20;;;;;;348285;28;868;-59
2024/01/09 00:17:34;;;;;;;15.85;8.75;;;10.70;50.10;;;;;;348144;28;920;-59
2024/01/09 00:17:45;;;;;;;15.45;9.05;;;10.60;50.10;;;;;;348191;28;1004;-59
2024/01/09 00:17:59;;;;;;;14.70;8.95;;;10.60;50.10;;;;;;348242;28;963;-59
2024/01/09 00:18:10;;;;;;;13.30;8.63;;;10.70;50.20;;;;;;348248;28;1218;-59
2024/01/09 00:18:20;;;;;;;15.70;8.60;;;10.60;50.20;;;;;;348109;28;1073;-58
2024/01/09 00:18:31;;;;;;;16.30;8.20;;;10.60;50.10;;;;;;348203;28;2126;-59
2024/01/09 00:18:42;;;;;;;14.10;8.30;;;10.70;50.10;;;;;;348209;28;1090;-59
2024/01/09 00:18:55;;;;;;;13.77;8.35;;;10.60;50.00;;;;;;348264;28;1019;-59
2024/01/09 00:19:06;;;;;;;14.32;8.57;;;10.60;50.10;;;;;;348165;28;1027;-58
2024/01/09 00:19:17;;;;;;;15.10;8.60;;;10.60;50.10;;;;;;348303;28;927;-58
2024/01/09 00:19:28;;;;;;;15.20;8.40;;;10.70;50.10;;;;;;348218;28;1016;-59
2024/01/09 00:19:38;;;;;;;14.93;8.43;;;10.70;50.10;;;;;;348201;28;1487;-58
2024/01/09 00:19:49;;;;;;;13.90;8.45;;;10.70;50.00;;;;;;348142;28;1085;-58
2024/01/09 00:20:00;;;;;;;12.77;8.20;;;10.60;50.10;;;;;;348324;28;865;-58
2024/01/09 00:20:11;;;;;;;13.88;8.45;;;10.70;50.10;;;;;;348230;28;829;-58
2024/01/09 00:20:22;;;;;;;14.73;8.40;;;10.60;50.10;;;;;;348199;28;991;-58
2024/01/09 00:20:32;;;;;;;14.43;8.65;;;10.70;50.10;;;;;;348157;28;1140;-59
2024/01/09 00:20:43;;;;;;;14.68;8.55;;;10.70;50.10;;;;;;348244;28;1042;-59
2024/01/09 00:20:54;;;;;;;13.23;8.43;;;10.70;50.10;;;;;;348263;28;900;-59
2024/01/09 00:21:05;;;;;;;12.65;8.18;;;10.70;50.10;;;;;;348190;28;880;-59
2024/01/09 00:21:16;;;;;;;13.77;8.20;;;10.70;50.20;;;;;;348260;28;1153;-59
2024/01/09 00:21:26;;;;;;;15.27;8.13;;;10.60;50.30;;;;;;348239;28;1137;-58
2024/01/09 00:21:39;;;;;;;15.57;8.38;;;10.70;50.40;;;;;;348149;28;1487;-58
2024/01/09 00:21:50;;;;;;;15.52;9.13;;;10.70;50.60;;;;;;348257;28;931;-58
2024/01/09 00:22:04;;;;;;;14.60;9.23;;;10.70;50.60;;;;;;348321;28;836;-58
2024/01/09 00:22:15;;;;;;;14.52;8.73;;;10.60;50.60;;;;;;348151;28;1011;-58
2024/01/09 00:22:26;;;;;;;14.90;8.73;;;10.70;50.60;;;;;;348197;28;967;-59
2024/01/09 00:22:36;;;;;;;13.50;8.75;;;10.70;50.50;;;;;;348196;28;1494;-59
2024/01/09 00:22:47;;;;;;;13.18;9.00;;;10.70;50.40;;;;;;348079;28;2297;-58
2024/01/09 00:22:58;;;;;;;13.53;8.80;;;10.70;50.40;;;;;;348249;28;1007;-59
2024/01/09 00:23:09;;;;;;;14.45;8.93;;;10.70;50.30;;;;;;348270;28;848;-59
2024/01/09 00:23:20;;;;;;;13.77;8.80;;;10.70;50.30;;;;;;348162;28;902;-58
2024/01/09 00:23:31;;;;;;;12.17;8.63;;;10.70;50.30;;;;;;348269;28;801;-59
2024/01/09 00:23:43;;;;;;;13.13;8.40;;;10.70;50.30;;;;;;348244;28;1030;-59
2024/01/09 00:23:54;;;;;;;14.68;8.30;;;10.70;50.30;;;;;;348167;28;992;-58
2024/01/09 00:24:05;;;;;;;17.63;8.55;;;10.70;50.30;;;;;;348244;28;976;-59
2024/01/09 00:24:15;;;;;;;17.88;8.52;;;10.70;50.40;;;;;;348250;28;947;-59
2024/01/09 00:24:26;;;;;;;15.15;8.82;;;10.70;50.40;;;;;;348124;28;1518;-59
2024/01/09 00:24:37;;;;;;;13.18;8.73;;;10.70;50.50;;;;;;348259;28;1031;-59
2024/01/09 00:24:48;;;;;;;13.13;8.93;;;10.70;50.40;;;;;;348259;28;1014;-59
2024/01/09 00:24:58;;;;;;;14.43;8.85;;;10.70;50.40;;;;;;348145;28;854;-58
2024/01/09 00:25:09;;;;;;;14.52;8.90;;;10.70;50.40;;;;;;348192;28;1395;-58
2024/01/09 00:25:20;;;;;;;13.13;8.57;;;10.70;50.30;;;;;;348163;28;922;-59
2024/01/09 00:25:31;;;;;;;13.05;8.10;;;10.70;50.20;;;;;;348291;28;876;-59
2024/01/09 00:25:42;;;;;;;13.05;8.50;;;10.70;50.10;;;;;;348145;28;1071;-58
2024/01/09 00:25:52;;;;;;;15.07;8.43;;;10.70;50.00;;;;;;348237;28;909;-59
2024/01/09 00:26:03;;;;;;;14.60;8.83;;;10.70;50.00;;;;;;348123;28;1031;-58
2024/01/09 00:26:14;;;;;;;13.83;8.90;;;10.70;50.00;;;;;;348261;28;1012;-59
2024/01/09 00:26:25;;;;;;;13.45;9.30;;;10.70;49.90;;;;;;348171;28;1692;-59
2024/01/09 00:26:45;;;;;;;14.38;9.18;;;10.70;50.00;;;;;;348102;28;1691;-59
2024/01/09 00:26:56;;;;;;;13.98;8.65;;;10.70;50.00;;;;;;348154;28;826;-59
2024/01/09 00:27:07;;;;;;;13.63;8.55;;;10.70;50.00;;;;;;348178;28;1058;-59
2024/01/09 00:27:17;;;;;;;13.10;8.43;;;10.70;50.10;;;;;;348238;28;996;-59
2024/01/09 00:27:28;;;;;;;13.63;8.40;;;10.70;50.20;;;;;;348175;28;999;-58
2024/01/09 00:27:39;;;;;;;14.43;8.32;;;10.70;50.20;;;;;;348264;28;905;-59
2024/01/09 00:27:50;;;;;;;14.53;8.30;;;10.70;50.20;;;;;;348100;28;1091;-58
2024/01/09 00:28:00;;;;;;;13.90;8.35;;;10.70;50.30;;;;;;348259;28;1070;-59
2024/01/09 00:28:11;;;;;;;13.18;8.50;;;10.70;50.40;;;;;;348178;28;1770;-59
2024/01/09 00:28:22;;;;;;;12.60;8.63;;;10.70;50.50;;;;;;348151;28;1049;-59
2024/01/09 00:28:33;;;;;;;12.68;8.43;;;10.70;50.50;;;;;;348199;28;1964;-59
2024/01/09 00:28:44;;;;;;;12.40;8.32;;;10.70;50.60;;;;;;348151;28;1090;-58
2024/01/09 00:28:54;;;;;;;12.23;8.10;;;10.70;50.60;;;;;;348259;28;863;-59
2024/01/09 00:29:05;;;;;;;12.90;8.18;;;10.70;50.60;;;;;;348167;28;984;-58
2024/01/09 00:29:16;;;;;;;12.65;8.10;;;10.70;50.60;;;;;;348237;28;1118;-59
2024/01/09 00:29:27;;;;;;;13.25;8.18;;;10.70;50.70;;;;;;348128;28;1028;-59
2024/01/09 00:29:38;;;;;;;15.18;8.25;;;10.70;50.70;;;;;;348220;28;940;-60
2024/01/09 00:29:48;;;;;;;15.38;8.55;;;10.70;50.80;;;;;;348188;28;984;-59
2024/01/09 00:29:59;;;;;;;13.65;8.57;;;10.70;50.90;;;;;;348148;28;1017;-59
2024/01/09 00:30:11;;;;;;;11.47;8.17;;;10.70;50.90;;;;;;348202;28;1075;-58
2024/01/09 00:30:21;;;;;;;10.85;7.72;;;10.70;50.70;;;;;;348264;28;991;-58
2024/01/09 00:30:32;;;;;;;12.50;7.85;;;10.70;50.60;;;;;;348221;28;1114;-59
2024/01/09 00:30:43;;;;;;;14.10;8.00;;;10.70;50.50;;;;;;348180;28;899;-59
2024/01/09 00:30:54;;;;;;;13.23;7.88;;;10.70;50.40;;;;;;348261;28;869;-59
2024/01/09 00:31:05;;;;;;;13.32;7.85;;;10.70;50.30;;;;;;348271;28;825;-59
2024/01/09 00:31:15;;;;;;;14.00;7.65;;;10.70;50.30;;;;;;348228;28;1073;-58
2024/01/09 00:31:26;;;;;;;17.17;7.88;;;10.70;50.30;;;;;;348223;28;929;-59
2024/01/09 00:31:37;;;;;;;17.77;7.97;;;10.70;50.30;;;;;;348233;28;1086;-58
2024/01/09 00:31:48;;;;;;;17.73;8.20;;;10.70;50.30;;;;;;348197;28;1122;-59
2024/01/09 00:31:58;;;;;;;15.50;8.05;;;10.70;50.30;;;;;;348154;28;2663;-59
2024/01/09 00:32:09;;;;;;;15.10;7.90;;;10.70;50.20;;;;;;348193;28;991;-60
2024/01/09 00:32:20;;;;;;;13.82;7.85;;;10.70;50.20;;;;;;348244;28;809;-58
2024/01/09 00:32:30;;;;;;;14.03;8.17;;;10.70;50.20;;;;;;348265;28;982;-59
2024/01/09 00:32:46;;;;;;;12.18;8.13;;;10.70;50.20;;;;;;348233;28;1039;-58
2024/01/09 00:32:57;;;;;;;12.98;8.15;;;10.70;50.20;;;;;;348252;28;1033;-58
2024/01/09 00:33:08;;;;;;;12.70;8.15;;;10.70;50.30;;;;;;348220;28;1861;-58
2024/01/09 00:33:19;;;;;;;14.48;8.10;;;10.70;50.40;;;;;;348213;28;1062;-58
2024/01/09 00:33:29;;;;;;;14.48;8.05;;;10.70;50.40;;;;;;348117;28;1102;-58
2024/01/09 00:33:40;;;;;;;16.48;8.10;;;10.70;50.40;;;;;;348241;28;1030;-59
2024/01/09 00:33:51;;;;;;;14.80;8.43;;;10.70;50.50;;;;;;348224;28;1031;-59
2024/01/09 00:34:02;;;;;;;13.80;8.73;;;10.70;50.60;;;;;;348272;28;1015;-59
2024/01/09 00:34:13;;;;;;;12.55;8.65;;;10.70;50.60;;;;;;348166;28;1122;-59
2024/01/09 00:34:24;;;;;;;14.00;8.43;;;10.70;50.60;;;;;;348193;28;1260;-59
2024/01/09 00:34:34;;;;;;;13.68;8.15;;;10.70;50.60;;;;;;348236;28;880;-59
2024/01/09 00:34:45;;;;;;;13.48;8.27;;;10.70;50.50;;;;;;348197;28;1094;-59
2024/01/09 00:34:56;;;;;;;13.35;8.05;;;10.70;50.40;;;;;;348081;28;1568;-59
2024/01/09 00:35:07;;;;;;;12.93;8.20;;;10.70;50.30;;;;;;348267;28;1007;-59
2024/01/09 00:35:18;;;;;;;14.18;8.23;;;10.70;50.30;;;;;;348231;28;1102;-59
2024/01/09 00:35:28;;;;;;;14.98;8.15;;;10.70;50.30;;;;;;348164;28;989;-59
2024/01/09 00:35:39;;;;;;;14.25;7.95;;;10.70;50.30;;;;;;348245;28;959;-59
2024/01/09 00:35:50;;;;;;;13.25;7.90;;;10.60;50.30;;;;;;348253;28;837;-60
2024/01/09 00:36:03;;;;;;;12.25;7.70;;;10.70;50.30;;;;;;348113;28;1106;-58
2024/01/09 00:36:14;;;;;;;11.30;7.82;;;10.70;50.30;;;;;;348192;28;948;-59
2024/01/09 00:36:25;;;;;;;11.38;8.13;;;10.70;50.40;;;;;;348256;28;916;-58
2024/01/09 00:36:44;;;;;;;12.30;8.43;;;10.70;50.40;;;;;;348237;28;1476;-59
2024/01/09 00:36:55;;;;;;;13.48;8.50;;;10.70;50.50;;;;;;348487;28;931;-59
2024/01/09 00:37:06;;;;;;;14.02;8.50;;;10.70;50.50;;;;;;348437;28;955;-59
2024/01/09 00:37:17;;;;;;;13.48;8.27;;;10.70;50.50;;;;;;348512;28;1098;-58
2024/01/09 00:37:27;;;;;;;15.32;8.05;;;10.70;50.50;;;;;;348530;28;1031;-58
2024/01/09 00:37:38;;;;;;;14.90;8.10;;;10.70;50.50;;;;;;348415;28;1027;-59
2024/01/09 00:37:49;;;;;;;14.68;8.18;;;10.70;50.50;;;;;;348525;28;880;-58
2024/01/09 00:37:59;;;;;;;12.85;8.07;;;10.70;50.50;;;;;;348443;28;1415;-59
2024/01/09 00:38:10;;;;;;;12.45;8.15;;;10.70;50.50;;;;;;348486;28;1035;-58
2024/01/09 00:38:21;;;;;;;12.57;8.57;;;10.70;50.60;;;;;;348489;28;1054;-59
2024/01/09 00:38:32;;;;;;;13.13;8.43;;;10.70;50.70;;;;;;348467;28;1074;-59
2024/01/09 00:38:42;;;;;;;14.15;8.77;;;10.70;50.80;;;;;;348465;28;1021;-59
2024/01/09 00:38:53;;;;;;;14.10;8.82;;;10.70;50.80;;;;;;348493;28;825;-58
2024/01/09 00:39:04;;;;;;;14.77;9.02;;;10.70;50.60;;;;;;348518;28;876;-59
2024/01/09 00:39:15;;;;;;;13.52;8.50;;;10.70;50.60;;;;;;348410;28;1008;-59
2024/01/09 00:39:26;;;;;;;13.85;8.30;;;10.70;50.60;;;;;;348479;28;885;-59
2024/01/09 00:39:36;;;;;;;13.27;8.23;;;10.70;50.60;;;;;;348475;28;1255;-58
2024/01/09 00:39:50;;;;;;;13.00;8.38;;;10.70;50.60;;;;;;348409;28;979;-58
2024/01/09 00:40:01;;;;;;;13.48;8.77;;;10.70;50.60;;;;;;348489;28;850;-59
2024/01/09 00:40:12;;;;;;;14.20;8.68;;;10.70;50.50;;;;;;348448;28;1102;-59
2024/01/09 00:40:23;;;;;;;15.02;8.40;;;10.70;50.50;;;;;;348462;28;1096;-59
2024/01/09 00:40:33;;;;;;;13.33;7.80;;;10.70;50.50;;;;;;348511;28;1946;-58
2024/01/09 00:40:45;;;;;;;12.77;7.80;;;10.70;50.40;;;;;;348409;28;1030;-58
2024/01/09 00:40:55;;;;;;;11.68;8.10;;;10.70;50.40;;;;;;348456;28;1682;-59
2024/01/09 00:41:06;;;;;;;12.30;8.47;;;10.70;50.30;;;;;;348507;28;1042;-59
2024/01/09 00:41:17;;;;;;;11.68;8.52;;;10.70;50.40;;;;;;348450;28;1031;-59
2024/01/09 00:41:28;;;;;;;13.38;8.57;;;10.70;50.60;;;;;;348537;28;884;-59
2024/01/09 00:41:38;;;;;;;13.63;8.30;;;10.70;50.50;;;;;;348358;28;1175;-59
2024/01/09 00:41:49;;;;;;;13.43;7.93;;;10.70;50.40;;;;;;348450;28;1411;-59
2024/01/09 00:42:00;;;;;;;12.87;7.87;;;10.70;50.40;;;;;;348463;28;1011;-58
2024/01/09 00:42:11;;;;;;;12.15;8.13;;;10.70;50.50;;;;;;348285;28;1231;-58
2024/01/09 00:42:21;;;;;;;13.73;8.68;;;10.70;50.50;;;;;;348535;28;841;-59
2024/01/09 00:42:32;;;;;;;13.40;8.80;;;10.70;50.50;;;;;;348416;28;1030;-59
2024/01/09 00:42:43;;;;;;;13.40;8.65;;;10.70;50.50;;;;;;348520;28;1030;-58
2024/01/09 00:42:54;;;;;;;11.93;8.33;;;10.70;50.50;;;;;;348493;28;907;-58
2024/01/09 00:43:04;;;;;;;11.60;7.97;;;10.70;50.40;;;;;;348501;28;872;-58
2024/01/09 00:43:15;;;;;;;11.88;8.00;;;10.70;50.40;;;;;;348517;28;877;-59
2024/01/09 00:43:26;;;;;;;12.20;7.97;;;10.70;50.50;;;;;;348386;28;1165;-59
2024/01/09 00:43:37;;;;;;;14.30;8.18;;;10.70;50.50;;;;;;348520;28;1011;-59
2024/01/09 00:43:47;;;;;;;14.23;8.50;;;10.70;50.60;;;;;;348508;28;848;-59
2024/01/09 00:43:58;;;;;;;15.55;8.68;;;10.70;50.70;;;;;;348433;28;1123;-59
2024/01/09 00:44:09;;;;;;;14.52;8.32;;;10.70;50.70;;;;;;348441;28;1094;-58
2024/01/09 00:44:20;;;;;;;13.90;8.20;;;10.70;50.60;;;;;;348386;28;980;-58
2024/01/09 00:44:30;;;;;;;12.47;7.93;;;10.70;50.60;;;;;;348275;28;1373;-58
2024/01/09 00:44:41;;;;;;;13.32;8.30;;;10.70;50.50;;;;;;348480;28;1468;-58
2024/01/09 00:44:52;;;;;;;13.68;8.30;;;10.70;50.60;;;;;;348447;28;1054;-58
2024/01/09 00:45:08;;;;;;;13.90;8.23;;;10.70;50.50;;;;;;348505;28;880;-58
2024/01/09 00:45:18;;;;;;;13.88;8.73;;;10.70;50.60;;;;;;348485;28;864;-59
2024/01/09 00:45:29;;;;;;;14.40;9.27;;;10.70;50.70;;;;;;348485;28;1850;-59
2024/01/09 00:45:40;;;;;;;16.65;9.00;;;10.70;50.80;;;;;;348424;28;999;-59
2024/01/09 00:45:51;;;;;;;14.65;8.10;;;10.70;50.80;;;;;;348434;28;1006;-59
2024/01/09 00:46:01;;;;;;;13.43;7.68;;;10.70;50.80;;;;;;348435;28;1218;-59
2024/01/09 00:46:12;;;;;;;14.38;7.88;;;10.70;50.80;;;;;;348442;28;955;-58
2024/01/09 00:46:27;;;;;;;14.30;7.97;;;10.70;50.80;;;;;;348498;28;991;-59
2024/01/09 00:46:38;;;;;;;13.82;8.32;;;10.80;50.60;;;;;;348403;28;915;-59
2024/01/09 00:46:49;;;;;;;12.70;8.38;;;10.70;50.60;;;;;;348520;28;828;-59
2024/01/09 00:47:00;;;;;;;11.03;8.13;;;10.70;50.70;;;;;;348486;28;948;-59
2024/01/09 00:47:10;;;;;;;10.07;7.75;;;10.70;50.70;;;;;;348417;28;1130;-61
2024/01/09 00:47:21;;;;;;;10.63;7.68;;;10.70;50.80;;;;;;348453;28;904;-58
2024/01/09 00:47:32;;;;;;;11.02;7.70;;;10.70;50.80;;;;;;348461;28;1118;-58
2024/01/09 00:47:43;;;;;;;12.02;7.53;;;10.70;50.80;;;;;;348419;28;1047;-59
2024/01/09 00:47:54;;;;;;;11.73;7.13;;;10.70;50.90;;;;;;348467;28;1008;-59
2024/01/09 00:48:05;;;;;;;11.03;7.03;;;10.70;50.90;;;;;;348489;28;1030;-58
2024/01/09 00:48:15;;;;;;;10.15;6.95;;;10.70;50.80;;;;;;348428;28;1003;-58
2024/01/09 00:48:26;;;;;;;12.40;7.40;;;10.70;50.80;;;;;;348499;28;1065;-59
2024/01/09 00:48:37;;;;;;;12.50;7.77;;;10.70;50.70;;;;;;348427;28;1972;-58
2024/01/09 00:48:48;;;;;;;12.02;7.85;;;10.70;50.60;;;;;;348352;28;1341;-59
2024/01/09 00:48:59;;;;;;;10.38;7.20;;;10.70;50.70;;;;;;348486;28;1047;-59
2024/01/09 00:49:09;;;;;;;10.98;7.18;;;10.70;50.70;;;;;;348490;28;849;-59
2024/01/09 00:49:20;;;;;;;11.63;7.55;;;10.70;50.70;;;;;;348432;28;983;-58
2024/01/09 00:49:31;;;;;;;10.57;7.57;;;10.70;50.80;;;;;;348481;28;1056;-59
2024/01/09 00:49:46;;;;;;;12.03;7.80;;;10.70;50.80;;;;;;348463;28;1589;-58
2024/01/09 00:49:56;;;;;;;13.82;7.82;;;10.70;51.00;;;;;;348379;28;1182;-59
2024/01/09 00:50:08;;;;;;;14.93;7.68;;;10.70;51.00;;;;;;348505;28;1492;-58
2024/01/09 00:50:18;;;;;;;14.15;7.38;;;10.70;51.00;;;;;;348456;28;1027;-59
2024/01/09 00:50:29;;;;;;;14.10;7.50;;;10.70;51.00;;;;;;348476;28;888;-59
2024/01/09 00:50:40;;;;;;;11.77;7.57;;;10.70;51.00;;;;;;348488;28;1011;-59
2024/01/09 00:50:51;;;;;;;12.65;7.93;;;10.70;51.00;;;;;;348440;28;2389;-58
2024/01/09 00:51:01;;;;;;;13.13;7.63;;;10.70;51.00;;;;;;348401;28;1078;-59
2024/01/09 00:51:12;;;;;;;14.32;7.60;;;10.70;51.10;;;;;;348478;28;911;-58
2024/01/09 00:51:23;;;;;;;12.43;7.53;;;10.70;51.10;;;;;;348549;28;813;-59
2024/01/09 00:51:34;;;;;;;10.73;7.50;;;10.70;51.00;;;;;;348387;28;1792;-58
2024/01/09 00:51:45;;;;;;;10.05;7.30;;;10.70;51.00;;;;;;348459;28;971;-58
2024/01/09 00:51:57;;;;;;;10.50;7.13;;;10.70;50.90;;;;;;348464;28;901;-58
2024/01/09 00:52:07;;;;;;;11.43;7.07;;;10.70;50.90;;;;;;348394;28;1097;-58
2024/01/09 00:52:18;;;;;;;12.20;7.57;;;10.70;51.00;;;;;;348429;28;1146;-58
2024/01/09 00:52:29;;;;;;;12.43;7.72;;;10.70;51.00;;;;;;348469;28;1109;-58
2024/01/09 00:52:40;;;;;;;10.38;7.80;;;10.70;51.00;;;;;;348412;28;1055;-59
2024/01/09 00:52:50;;;;;;;10.15;7.75;;;10.70;51.00;;;;;;348501;28;1010;-58
2024/01/09 00:53:01;;;;;;;10.05;7.63;;;10.70;51.00;;;;;;348493;28;1090;-57
2024/01/09 00:53:13;;;;;;;11.53;7.70;;;10.70;50.90;;;;;;348382;28;1011;-59
2024/01/09 00:53:24;;;;;;;12.43;7.50;;;10.70;51.10;;;;;;348474;28;1008;-59
2024/01/09 00:53:35;;;;;;;12.67;7.60;;;10.70;51.10;;;;;;348468;28;1090;-58
2024/01/09 00:53:46;;;;;;;12.07;7.82;;;10.70;51.10;;;;;;348419;28;1192;-58
2024/01/09 00:53:56;;;;;;;11.50;7.72;;;10.70;51.20;;;;;;348418;28;1561;-59
2024/01/09 00:54:07;;;;;;;12.07;7.50;;;10.70;51.30;;;;;;348497;28;1078;-59
2024/01/09 00:54:19;;;;;;;11.30;7.38;;;10.70;51.30;;;;;;348417;28;1019;-59
2024/01/09 00:54:30;;;;;;;12.00;7.00;;;10.70;51.30;;;;;;348483;28;1062;-59
2024/01/09 00:54:43;;;;;;;11.18;7.05;;;10.70;51.30;;;;;;348439;28;1293;-59
2024/01/09 00:54:53;;;;;;;10.18;6.95;;;10.70;51.20;;;;;;348427;28;1020;-59
2024/01/09 00:55:05;;;;;;;9.75;6.97;;;10.70;51.30;;;;;;348481;28;959;-58
2024/01/09 00:55:16;;;;;;;9.10;6.90;;;10.70;51.30;;;;;;348427;28;912;-58
2024/01/09 00:55:27;;;;;;;10.80;7.10;;;10.70;51.40;;;;;;348486;28;903;-58
2024/01/09 00:55:37;;;;;;;12.07;7.25;;;10.70;51.50;;;;;;348379;28;1038;-59
2024/01/09 00:55:48;;;;;;;12.33;7.50;;;10.70;51.60;;;;;;348488;28;858;-59
2024/01/09 00:55:59;;;;;;;10.97;7.70;;;10.70;51.60;;;;;;348377;28;1115;-59
2024/01/09 00:56:10;;;;;;;10.45;7.65;;;10.70;51.50;;;;;;348403;28;1465;-59
2024/01/09 00:56:21;;;;;;;10.30;7.22;;;10.70;51.40;;;;;;348368;28;867;-58
2024/01/09 00:56:32;;;;;;;10.13;6.78;;;10.70;51.40;;;;;;348506;28;1062;-59
2024/01/09 00:56:43;;;;;;;9.60;6.80;;;10.70;51.20;;;;;;348521;28;984;-58
2024/01/09 00:56:53;;;;;;;12.27;7.15;;;10.70;51.20;;;;;;348457;28;975;-59
2024/01/09 00:57:04;;;;;;;13.15;7.10;;;10.70;51.20;;;;;;348385;28;1024;-58
2024/01/09 00:57:15;;;;;;;13.63;7.25;;;10.70;51.30;;;;;;348455;28;1003;-59
2024/01/09 00:57:26;;;;;;;10.77;7.20;;;10.70;51.40;;;;;;348445;28;935;-59
2024/01/09 00:57:36;;;;;;;10.57;7.18;;;10.70;51.40;;;;;;348504;28;963;-59
2024/01/09 00:57:47;;;;;;;11.13;7.15;;;10.70;51.30;;;;;;348392;28;1026;-59
2024/01/09 00:57:58;;;;;;;12.35;7.05;;;10.70;51.20;;;;;;348384;28;1620;-59
2024/01/09 00:58:09;;;;;;;12.15;7.22;;;10.70;51.20;;;;;;348487;28;2053;-58
2024/01/09 00:58:19;;;;;;;11.87;7.23;;;10.70;51.30;;;;;;348446;28;1145;-58